createdAt,value
2023-03-24T00:02:51.851Z,11.35
2023-03-24T00:08:15.170Z,12.33
2023-03-24T00:13:40.724Z,10.97
2023-03-24T00:19:03.401Z,11.00
2023-03-24T00:24:25.790Z,9.77
2023-03-24T00:29:48.047Z,8.97
2023-03-24T00:35:13.229Z,9.10
2023-03-24T00:40:37.225Z,8.97
2023-03-24T00:46:02.343Z,9.08
2023-03-24T00:51:25.427Z,9.97
2023-03-24T00:56:50.159Z,9.40
2023-03-24T01:02:15.478Z,9.23
2023-03-24T01:07:41.101Z,10.20
2023-03-24T01:13:05.777Z,9.18
2023-03-24T01:18:28.643Z,8.90
2023-03-24T01:23:51.390Z,7.60
2023-03-24T01:29:13.658Z,7.62
2023-03-24T01:34:36.820Z,7.37
2023-03-24T01:39:59.144Z,7.80
2023-03-24T01:45:59.662Z,8.68
2023-03-24T01:51:38.266Z,9.20
2023-03-24T01:57:06.827Z,9.03
2023-03-24T02:02:30.314Z,6.67
2023-03-24T02:08:03.626Z,6.62
2023-03-24T02:13:26.560Z,5.95
2023-03-24T02:19:18.882Z,5.33
2023-03-24T02:25:28.234Z,5.62
2023-03-24T02:31:25.824Z,5.33
2023-03-24T02:37:17.300Z,4.97
2023-03-24T02:43:05.187Z,4.60
2023-03-24T02:48:58.744Z,4.80
2023-03-24T02:54:35.005Z,5.25
2023-03-24T03:00:12.667Z,4.77
2023-03-24T03:05:39.868Z,5.35
2023-03-24T03:11:08.025Z,6.07
2023-03-24T03:16:39.609Z,6.67
2023-03-24T03:22:24.244Z,5.63
2023-03-24T03:27:49.867Z,7.60
2023-03-24T03:33:18.581Z,6.57
2023-03-24T03:39:14.150Z,7.73
2023-03-24T03:44:37.866Z,7.60
2023-03-24T03:50:00.367Z,7.97
2023-03-24T03:55:24.775Z,8.37
2023-03-24T04:00:48.254Z,8.87
2023-03-24T04:06:20.090Z,8.77
2023-03-24T04:12:18.153Z,10.33
2023-03-24T04:18:18.920Z,10.23
2023-03-24T04:23:55.002Z,9.47
2023-03-24T04:29:45.269Z,9.97
2023-03-24T04:35:14.606Z,10.10
2023-03-24T04:40:39.965Z,10.23
2023-03-24T04:46:02.788Z,9.75
2023-03-24T04:51:29.029Z,9.95
2023-03-24T04:57:04.309Z,9.50
2023-03-24T05:02:27.478Z,10.15
2023-03-24T05:07:50.641Z,10.93
2023-03-24T05:13:14.419Z,9.93
2023-03-24T05:18:38.086Z,10.93
2023-03-24T05:24:00.470Z,11.90
2023-03-24T05:29:22.941Z,10.65
2023-03-24T05:34:46.118Z,12.80
2023-03-24T05:40:09.201Z,23.38
2023-03-24T05:45:31.859Z,25.80
2023-03-24T05:50:54.344Z,26.65
2023-03-24T05:56:17.427Z,21.80
2023-03-24T06:01:39.738Z,17.62
2023-03-24T06:07:03.128Z,15.30
2023-03-24T06:12:26.028Z,12.47
2023-03-24T06:17:50.464Z,11.80
2023-03-24T06:23:12.790Z,11.22
2023-03-24T06:28:35.751Z,10.13
2023-03-24T06:33:58.397Z,9.23
2023-03-24T06:39:21.574Z,9.35
2023-03-24T06:44:44.141Z,8.00
2023-03-24T06:50:07.404Z,7.03
2023-03-24T06:55:29.780Z,7.33
2023-03-24T07:00:52.238Z,7.43
2023-03-24T07:06:14.928Z,7.30
2023-03-24T07:11:37.362Z,7.60
2023-03-24T07:16:59.639Z,7.45
2023-03-24T07:22:22.402Z,7.50
2023-03-24T07:27:44.845Z,6.92
2023-03-24T07:33:11.371Z,6.70
2023-03-24T07:38:46.159Z,5.90
2023-03-24T07:44:10.317Z,7.27
2023-03-24T07:49:32.759Z,6.37
2023-03-24T07:54:55.095Z,6.47
2023-03-24T08:00:21.691Z,6.57
2023-03-24T08:05:44.613Z,6.87
2023-03-24T08:11:07.423Z,6.50
2023-03-24T08:16:30.039Z,8.00
2023-03-24T08:21:52.849Z,7.30
2023-03-24T08:27:17.021Z,7.95
2023-03-24T08:32:42.527Z,7.43
2023-03-24T08:38:07.099Z,7.12
2023-03-24T08:43:31.049Z,7.63
2023-03-24T08:48:54.163Z,7.50
2023-03-24T08:54:19.698Z,6.95
2023-03-24T08:59:41.974Z,7.28
2023-03-24T09:05:04.904Z,6.70
2023-03-24T09:10:28.983Z,6.50
2023-03-24T09:15:55.229Z,6.77
2023-03-24T09:21:18.188Z,6.27
2023-03-24T09:26:40.747Z,5.45
2023-03-24T09:32:03.752Z,5.42
2023-03-24T09:37:26.186Z,5.15
2023-03-24T09:42:55.859Z,4.20
2023-03-24T10:01:26.835Z,3.63
2023-03-24T10:17:45.208Z,3.63
2023-03-24T10:23:24.398Z,3.33
2023-03-24T10:29:01.093Z,3.10
2023-03-24T10:34:30.507Z,2.87
2023-03-24T10:39:56.295Z,3.17
2023-03-24T10:45:20.523Z,2.87
2023-03-24T10:50:48.520Z,3.10
2023-03-24T10:56:11.061Z,2.62
2023-03-24T11:01:42.576Z,2.83
2023-03-24T11:07:21.288Z,3.10
2023-03-24T11:18:32.010Z,3.00
2023-03-24T11:29:30.573Z,2.57
2023-03-24T11:35:01.653Z,2.70
2023-03-24T11:40:31.556Z,3.10
2023-03-24T11:46:14.049Z,3.20
2023-03-24T11:51:45.462Z,3.50
2023-03-24T11:57:17.929Z,3.13
2023-03-24T12:02:48.730Z,3.50
2023-03-24T12:08:37.831Z,2.93
2023-03-24T12:14:05.598Z,3.80
2023-03-24T12:19:56.510Z,3.37
2023-03-24T12:25:49.685Z,3.77
2023-03-24T12:31:57.607Z,4.00
2023-03-24T12:37:45.575Z,4.03
2023-03-24T12:49:15.695Z,4.10
2023-03-24T12:55:05.244Z,4.30
2023-03-24T13:00:41.326Z,3.90
2023-03-24T13:06:17.570Z,3.87
2023-03-24T13:17:40.494Z,4.03
2023-03-24T13:23:36.890Z,4.23
2023-03-24T13:41:52.352Z,4.43
2023-03-24T13:53:55.482Z,4.73
2023-03-24T13:59:42.250Z,4.40
2023-03-24T14:05:31.916Z,3.70
2023-03-24T14:16:53.060Z,3.40
2023-03-24T14:22:50.152Z,3.73
2023-03-24T14:28:33.046Z,3.57
2023-03-24T14:34:13.583Z,4.00
2023-03-24T14:39:48.593Z,3.40
2023-03-24T14:45:15.154Z,3.27
2023-03-24T14:50:43.890Z,2.72
2023-03-24T14:56:21.952Z,2.83
2023-03-24T15:07:26.045Z,3.10
2023-03-24T15:13:21.706Z,3.22
2023-03-24T15:18:31.438Z,2.67
2023-03-24T15:23:53.985Z,3.17
2023-03-24T15:29:18.998Z,3.33
2023-03-24T15:34:57.266Z,6.53
2023-03-24T15:40:34.044Z,4.08
2023-03-24T15:46:12.405Z,5.60
2023-03-24T15:57:37.731Z,3.77
2023-03-24T16:03:09.582Z,3.62
2023-03-24T16:08:51.645Z,3.60
2023-03-24T16:20:16.478Z,3.60
2023-03-24T16:25:38.979Z,3.58
2023-03-24T16:31:07.819Z,4.37
2023-03-24T16:36:32.871Z,3.97
2023-03-24T16:41:55.846Z,4.40
2023-03-24T16:47:18.236Z,4.35
2023-03-24T16:52:40.645Z,5.10
2023-03-24T16:58:02.983Z,4.50
2023-03-24T17:03:25.741Z,5.00
2023-03-24T17:08:48.192Z,4.73
2023-03-24T17:19:44.623Z,3.70
2023-03-24T17:25:07.156Z,3.90
2023-03-24T17:30:40.477Z,2.63
2023-03-24T17:41:44.070Z,1.70
2023-03-24T17:47:07.772Z,1.92
2023-03-24T17:52:30.964Z,2.00
2023-03-24T17:57:53.984Z,1.90
2023-03-24T18:03:17.051Z,2.30
2023-03-24T18:08:39.514Z,2.77
2023-03-24T18:14:02.230Z,3.03
2023-03-24T18:19:25.880Z,3.30
2023-03-24T18:24:48.562Z,3.70
2023-03-24T18:30:13.274Z,3.25
2023-03-24T18:35:36.069Z,4.00
2023-03-24T18:41:05.302Z,3.12
2023-03-24T18:46:28.968Z,3.67
2023-03-24T18:51:51.845Z,3.70
2023-03-24T18:57:14.335Z,3.75
2023-03-24T19:02:41.206Z,3.85
2023-03-24T19:08:05.400Z,4.10
2023-03-24T19:13:32.049Z,3.30
2023-03-24T19:18:56.800Z,3.70
2023-03-24T19:24:19.585Z,3.67
2023-03-24T19:29:42.204Z,3.95
2023-03-24T19:35:05.563Z,4.05
2023-03-24T19:40:29.158Z,4.05
2023-03-24T19:45:58.685Z,3.92
2023-03-24T19:51:21.755Z,4.17
2023-03-24T19:56:44.252Z,4.28
2023-03-24T20:02:07.558Z,4.25
2023-03-24T20:07:31.361Z,4.08
2023-03-24T20:12:54.125Z,4.45
2023-03-24T20:18:17.020Z,4.55
2023-03-24T20:23:39.575Z,4.20
2023-03-24T20:29:02.290Z,4.58
2023-03-24T20:34:24.754Z,5.00
2023-03-24T20:39:47.118Z,4.80
2023-03-24T20:45:09.499Z,5.20
2023-03-24T20:50:31.852Z,5.47
2023-03-24T20:56:02.020Z,4.92
2023-03-24T21:06:45.354Z,5.03
2023-03-24T21:12:07.589Z,5.13
2023-03-24T21:17:31.520Z,5.10
2023-03-24T21:22:55.285Z,4.93
2023-03-24T21:28:20.865Z,5.72
2023-03-24T21:33:44.913Z,5.30
2023-03-24T21:39:09.249Z,5.37
2023-03-24T21:44:32.517Z,5.27
2023-03-24T21:49:56.464Z,5.33
2023-03-24T21:55:20.788Z,5.03
2023-03-24T22:00:45.284Z,5.25
2023-03-24T22:11:43.297Z,5.40
2023-03-24T22:17:05.569Z,5.50
2023-03-24T22:22:27.897Z,5.50
2023-03-24T22:27:52.872Z,5.73
2023-03-24T22:33:15.734Z,5.58
2023-03-24T22:38:44.070Z,6.23
2023-03-24T22:44:06.480Z,5.73
2023-03-24T22:49:29.682Z,5.97
2023-03-24T22:54:52.002Z,5.70
2023-03-24T23:00:15.017Z,6.58
2023-03-24T23:05:37.256Z,6.23
2023-03-24T23:11:01.211Z,6.10
2023-03-24T23:16:24.019Z,6.30
2023-03-24T23:21:47.499Z,6.35
2023-03-24T23:27:09.743Z,6.47
2023-03-24T23:32:32.109Z,6.43
2023-03-24T23:37:55.478Z,6.00
2023-03-24T23:43:17.852Z,6.30
2023-03-24T23:48:42.133Z,6.80
2023-03-24T23:54:04.520Z,6.53
2023-03-24T23:59:27.800Z,6.67
